Aurora, Texas
Current Conditions -  °F | °C
As of 2:53 AM on Sunday 26 Oct 2014 (Local Time) from KAFW Reporting Station
Clear Clear  
Wind Chill: 71°   Ceiling: Unl
Heat Index: 71°   Visibility: 10mi
Dew Point: 59°   Wind: 9mph
Humidity: 66%   Direction: 200°SSW
Pressure: 30.01"   Gusts: NA
Location:  33.0495°N, 97.45°W
Report Text: KAFW 260753Z 20008KT 10SM CLR 22/15 A3001 RMK AO2 SLP148 T02170150 $
Loading
Personal Weather Stations






























Interactive Weather Map
Tropical Storm Tracking
New forecast layout! Learn more

10-Day Weather Forecast

Advertisements
Track Severe Weather on mobile